sensor_id;sensor_type;location;lat;lon;timestamp;P1;durP1;ratioP1;P2;durP2;ratioP2
53927;SDS011;39837;47.630;18.822;2022-12-20T00:02:16;30.33;;;16.48;;
53927;SDS011;39837;47.630;18.822;2022-12-20T00:05:00;23.02;;;12.10;;
53927;SDS011;39837;47.630;18.822;2022-12-20T00:07:44;24.95;;;14.32;;
53927;SDS011;39837;47.630;18.822;2022-12-20T00:10:28;25.38;;;15.30;;
53927;SDS011;39837;47.630;18.822;2022-12-20T00:13:12;20.02;;;12.32;;
53927;SDS011;39837;47.630;18.822;2022-12-20T00:16:06;21.98;;;14.35;;
53927;SDS011;39837;47.630;18.822;2022-12-20T00:18:55;29.17;;;14.68;;
53927;SDS011;39837;47.630;18.822;2022-12-20T00:21:40;36.47;;;15.43;;
53927;SDS011;39837;47.630;18.822;2022-12-20T00:24:24;34.83;;;15.57;;
53927;SDS011;39837;47.630;18.822;2022-12-20T00:27:08;28.38;;;15.30;;
53927;SDS011;39837;47.630;18.822;2022-12-20T00:29:52;29.58;;;13.40;;
53927;SDS011;39837;47.630;18.822;2022-12-20T00:32:36;24.13;;;12.52;;
53927;SDS011;39837;47.630;18.822;2022-12-20T00:35:21;21.63;;;13.43;;
53927;SDS011;39837;47.630;18.822;2022-12-20T00:38:04;26.23;;;13.02;;
53927;SDS011;39837;47.630;18.822;2022-12-20T00:41:08;29.48;;;14.45;;
53927;SDS011;39837;47.630;18.822;2022-12-20T00:43:54;22.38;;;13.30;;
53927;SDS011;39837;47.630;18.822;2022-12-20T00:46:38;31.27;;;14.23;;
53927;SDS011;39837;47.630;18.822;2022-12-20T00:49:22;34.75;;;14.65;;
53927;SDS011;39837;47.630;18.822;2022-12-20T00:52:06;32.17;;;14.15;;
53927;SDS011;39837;47.630;18.822;2022-12-20T00:54:50;24.75;;;13.10;;
53927;SDS011;39837;47.630;18.822;2022-12-20T00:57:34;19.48;;;12.20;;
53927;SDS011;39837;47.630;18.822;2022-12-20T01:00:18;22.42;;;14.13;;
53927;SDS011;39837;47.630;18.822;2022-12-20T01:03:02;28.45;;;11.70;;
53927;SDS011;39837;47.630;18.822;2022-12-20T01:05:53;24.52;;;13.45;;
53927;SDS011;39837;47.630;18.822;2022-12-20T01:08:42;31.70;;;15.00;;
53927;SDS011;39837;47.630;18.822;2022-12-20T01:11:28;29.63;;;14.25;;
53927;SDS011;39837;47.630;18.822;2022-12-20T01:14:14;28.13;;;13.75;;
53927;SDS011;39837;47.630;18.822;2022-12-20T01:16:58;26.95;;;14.40;;
53927;SDS011;39837;47.630;18.822;2022-12-20T01:19:42;26.50;;;13.68;;
53927;SDS011;39837;47.630;18.822;2022-12-20T01:22:27;30.65;;;13.27;;
53927;SDS011;39837;47.630;18.822;2022-12-20T01:25:11;24.17;;;13.02;;
53927;SDS011;39837;47.630;18.822;2022-12-20T01:27:55;26.30;;;12.77;;
53927;SDS011;39837;47.630;18.822;2022-12-20T01:30:40;24.75;;;12.85;;
53927;SDS011;39837;47.630;18.822;2022-12-20T01:33:24;25.00;;;11.82;;
53927;SDS011;39837;47.630;18.822;2022-12-20T01:36:09;38.78;;;14.63;;
53927;SDS011;39837;47.630;18.822;2022-12-20T01:38:57;27.30;;;14.35;;
53927;SDS011;39837;47.630;18.822;2022-12-20T01:41:43;33.63;;;14.27;;
53927;SDS011;39837;47.630;18.822;2022-12-20T01:47:11;29.75;;;14.60;;
53927;SDS011;39837;47.630;18.822;2022-12-20T01:49:56;23.83;;;14.15;;
53927;SDS011;39837;47.630;18.822;2022-12-20T01:52:42;25.55;;;14.75;;
53927;SDS011;39837;47.630;18.822;2022-12-20T01:55:27;31.38;;;15.43;;
53927;SDS011;39837;47.630;18.822;2022-12-20T01:58:12;26.73;;;13.25;;
53927;SDS011;39837;47.630;18.822;2022-12-20T02:00:57;37.70;;;14.55;;
53927;SDS011;39837;47.630;18.822;2022-12-20T02:03:41;30.00;;;12.50;;
53927;SDS011;39837;47.630;18.822;2022-12-20T02:06:26;33.38;;;14.48;;
53927;SDS011;39837;47.630;18.822;2022-12-20T02:09:10;30.13;;;13.52;;
53927;SDS011;39837;47.630;18.822;2022-12-20T02:21:38;24.77;;;13.48;;
53927;SDS011;39837;47.630;18.822;2022-12-20T02:24:47;20.63;;;12.02;;
53927;SDS011;39837;47.630;18.822;2022-12-20T02:27:48;21.02;;;12.13;;
53927;SDS011;39837;47.630;18.822;2022-12-20T02:30:48;24.00;;;13.15;;
53927;SDS011;39837;47.630;18.822;2022-12-20T02:33:34;36.72;;;14.20;;
53927;SDS011;39837;47.630;18.822;2022-12-20T02:36:18;22.15;;;10.48;;
53927;SDS011;39837;47.630;18.822;2022-12-20T02:39:03;16.35;;;7.85;;
53927;SDS011;39837;47.630;18.822;2022-12-20T02:41:49;21.80;;;12.25;;
53927;SDS011;39837;47.630;18.822;2022-12-20T02:44:36;25.88;;;13.48;;
53927;SDS011;39837;47.630;18.822;2022-12-20T02:50:31;21.63;;;13.07;;
53927;SDS011;39837;47.630;18.822;2022-12-20T02:53:18;25.63;;;12.27;;
53927;SDS011;39837;47.630;18.822;2022-12-20T02:59:13;25.27;;;12.45;;
53927;SDS011;39837;47.630;18.822;2022-12-20T03:02:02;26.23;;;10.50;;
53927;SDS011;39837;47.630;18.822;2022-12-20T03:04:47;20.27;;;13.82;;
53927;SDS011;39837;47.630;18.822;2022-12-20T03:07:32;25.50;;;11.68;;
53927;SDS011;39837;47.630;18.822;2022-12-20T03:10:16;31.85;;;13.25;;
53927;SDS011;39837;47.630;18.822;2022-12-20T03:13:01;23.30;;;13.10;;
53927;SDS011;39837;47.630;18.822;2022-12-20T03:15:44;27.73;;;15.18;;
53927;SDS011;39837;47.630;18.822;2022-12-20T03:18:29;26.70;;;14.05;;
53927;SDS011;39837;47.630;18.822;2022-12-20T03:21:13;27.00;;;14.48;;
53927;SDS011;39837;47.630;18.822;2022-12-20T03:23:57;26.65;;;12.73;;
53927;SDS011;39837;47.630;18.822;2022-12-20T03:26:41;17.00;;;11.82;;
53927;SDS011;39837;47.630;18.822;2022-12-20T03:29:26;28.70;;;12.68;;
53927;SDS011;39837;47.630;18.822;2022-12-20T03:32:10;27.05;;;13.13;;
53927;SDS011;39837;47.630;18.822;2022-12-20T03:34:55;23.05;;;12.55;;
53927;SDS011;39837;47.630;18.822;2022-12-20T03:37:39;21.88;;;12.73;;
53927;SDS011;39837;47.630;18.822;2022-12-20T03:40:23;26.15;;;10.95;;
53927;SDS011;39837;47.630;18.822;2022-12-20T03:43:07;28.58;;;12.05;;
53927;SDS011;39837;47.630;18.822;2022-12-20T03:45:51;23.33;;;12.93;;
53927;SDS011;39837;47.630;18.822;2022-12-20T03:48:35;20.48;;;12.23;;
53927;SDS011;39837;47.630;18.822;2022-12-20T03:51:19;18.95;;;11.13;;
53927;SDS011;39837;47.630;18.822;2022-12-20T03:54:03;22.90;;;11.35;;
53927;SDS011;39837;47.630;18.822;2022-12-20T03:56:48;27.98;;;12.07;;
53927;SDS011;39837;47.630;18.822;2022-12-20T03:59:32;36.15;;;13.48;;
53927;SDS011;39837;47.630;18.822;2022-12-20T04:02:16;22.20;;;11.23;;
53927;SDS011;39837;47.630;18.822;2022-12-20T04:05:00;19.67;;;11.88;;
53927;SDS011;39837;47.630;18.822;2022-12-20T04:07:44;22.90;;;13.00;;
53927;SDS011;39837;47.630;18.822;2022-12-20T04:10:29;22.90;;;11.70;;
53927;SDS011;39837;47.630;18.822;2022-12-20T04:13:13;17.73;;;10.88;;
53927;SDS011;39837;47.630;18.822;2022-12-20T04:15:57;22.17;;;10.13;;
53927;SDS011;39837;47.630;18.822;2022-12-20T04:18:41;17.67;;;8.95;;
53927;SDS011;39837;47.630;18.822;2022-12-20T04:21:30;15.90;;;9.52;;
53927;SDS011;39837;47.630;18.822;2022-12-20T04:24:15;22.83;;;10.90;;
53927;SDS011;39837;47.630;18.822;2022-12-20T04:26:59;19.73;;;11.32;;
53927;SDS011;39837;47.630;18.822;2022-12-20T04:29:44;21.70;;;10.45;;
53927;SDS011;39837;47.630;18.822;2022-12-20T04:32:28;23.92;;;10.27;;
53927;SDS011;39837;47.630;18.822;2022-12-20T04:35:12;18.83;;;10.02;;
53927;SDS011;39837;47.630;18.822;2022-12-20T04:37:56;23.45;;;11.60;;
53927;SDS011;39837;47.630;18.822;2022-12-20T04:40:40;31.42;;;12.27;;
53927;SDS011;39837;47.630;18.822;2022-12-20T04:43:25;18.27;;;11.48;;
53927;SDS011;39837;47.630;18.822;2022-12-20T04:46:09;24.45;;;10.48;;
53927;SDS011;39837;47.630;18.822;2022-12-20T04:48:53;16.13;;;10.05;;
53927;SDS011;39837;47.630;18.822;2022-12-20T04:51:37;15.82;;;9.10;;
53927;SDS011;39837;47.630;18.822;2022-12-20T04:54:24;16.48;;;11.13;;
53927;SDS011;39837;47.630;18.822;2022-12-20T04:57:08;14.30;;;9.20;;
53927;SDS011;39837;47.630;18.822;2022-12-20T04:59:52;25.00;;;9.75;;
53927;SDS011;39837;47.630;18.822;2022-12-20T05:02:37;17.40;;;9.63;;
53927;SDS011;39837;47.630;18.822;2022-12-20T05:05:21;11.68;;;8.45;;
53927;SDS011;39837;47.630;18.822;2022-12-20T05:08:05;23.77;;;11.30;;
53927;SDS011;39837;47.630;18.822;2022-12-20T05:10:50;16.35;;;9.52;;
53927;SDS011;39837;47.630;18.822;2022-12-20T05:13:34;24.63;;;10.90;;
53927;SDS011;39837;47.630;18.822;2022-12-20T05:16:18;25.60;;;11.13;;
53927;SDS011;39837;47.630;18.822;2022-12-20T05:19:02;25.13;;;11.88;;
53927;SDS011;39837;47.630;18.822;2022-12-20T05:21:47;18.23;;;12.45;;
53927;SDS011;39837;47.630;18.822;2022-12-20T05:24:50;21.05;;;11.18;;
53927;SDS011;39837;47.630;18.822;2022-12-20T05:27:52;16.33;;;10.35;;
53927;SDS011;39837;47.630;18.822;2022-12-20T05:30:37;18.13;;;11.23;;
53927;SDS011;39837;47.630;18.822;2022-12-20T05:33:20;25.15;;;11.95;;
53927;SDS011;39837;47.630;18.822;2022-12-20T05:36:04;19.90;;;11.38;;
53927;SDS011;39837;47.630;18.822;2022-12-20T05:38:49;13.48;;;8.18;;
53927;SDS011;39837;47.630;18.822;2022-12-20T05:41:33;10.65;;;8.30;;
53927;SDS011;39837;47.630;18.822;2022-12-20T05:44:17;25.75;;;12.93;;
53927;SDS011;39837;47.630;18.822;2022-12-20T05:47:01;19.83;;;12.13;;
53927;SDS011;39837;47.630;18.822;2022-12-20T05:49:44;19.85;;;10.07;;
53927;SDS011;39837;47.630;18.822;2022-12-20T05:52:30;18.75;;;10.25;;
53927;SDS011;39837;47.630;18.822;2022-12-20T05:55:14;25.83;;;12.00;;
53927;SDS011;39837;47.630;18.822;2022-12-20T05:57:58;20.80;;;11.07;;
53927;SDS011;39837;47.630;18.822;2022-12-20T06:00:42;18.25;;;11.48;;
53927;SDS011;39837;47.630;18.822;2022-12-20T06:03:27;20.40;;;12.35;;
53927;SDS011;39837;47.630;18.822;2022-12-20T06:06:11;27.77;;;12.00;;
53927;SDS011;39837;47.630;18.822;2022-12-20T06:08:55;18.98;;;9.70;;
53927;SDS011;39837;47.630;18.822;2022-12-20T06:11:40;18.63;;;10.18;;
53927;SDS011;39837;47.630;18.822;2022-12-20T06:14:24;23.80;;;12.00;;
53927;SDS011;39837;47.630;18.822;2022-12-20T06:17:08;21.55;;;11.80;;
53927;SDS011;39837;47.630;18.822;2022-12-20T06:19:52;22.83;;;11.73;;
53927;SDS011;39837;47.630;18.822;2022-12-20T06:22:36;21.23;;;9.88;;
53927;SDS011;39837;47.630;18.822;2022-12-20T06:25:20;16.67;;;10.15;;
53927;SDS011;39837;47.630;18.822;2022-12-20T06:28:05;20.38;;;11.05;;
53927;SDS011;39837;47.630;18.822;2022-12-20T06:30:54;26.90;;;13.95;;
53927;SDS011;39837;47.630;18.822;2022-12-20T06:33:39;32.53;;;14.20;;
53927;SDS011;39837;47.630;18.822;2022-12-20T06:36:23;20.98;;;11.40;;
53927;SDS011;39837;47.630;18.822;2022-12-20T06:39:07;20.38;;;10.65;;
53927;SDS011;39837;47.630;18.822;2022-12-20T06:41:52;16.73;;;11.40;;
53927;SDS011;39837;47.630;18.822;2022-12-20T06:44:36;25.67;;;13.73;;
53927;SDS011;39837;47.630;18.822;2022-12-20T06:47:19;17.90;;;11.60;;
53927;SDS011;39837;47.630;18.822;2022-12-20T06:50:04;12.95;;;9.95;;
53927;SDS011;39837;47.630;18.822;2022-12-20T06:53:09;13.00;;;9.52;;
53927;SDS011;39837;47.630;18.822;2022-12-20T06:55:53;21.15;;;10.77;;
53927;SDS011;39837;47.630;18.822;2022-12-20T06:58:37;19.73;;;10.50;;
53927;SDS011;39837;47.630;18.822;2022-12-20T07:01:21;14.43;;;8.63;;
53927;SDS011;39837;47.630;18.822;2022-12-20T07:04:05;16.83;;;9.60;;
53927;SDS011;39837;47.630;18.822;2022-12-20T07:06:49;20.55;;;10.23;;
53927;SDS011;39837;47.630;18.822;2022-12-20T07:09:33;19.10;;;10.45;;
53927;SDS011;39837;47.630;18.822;2022-12-20T07:12:17;18.73;;;10.18;;
53927;SDS011;39837;47.630;18.822;2022-12-20T07:15:02;29.35;;;12.23;;
53927;SDS011;39837;47.630;18.822;2022-12-20T07:17:46;24.80;;;13.67;;
53927;SDS011;39837;47.630;18.822;2022-12-20T07:20:30;17.23;;;10.88;;
53927;SDS011;39837;47.630;18.822;2022-12-20T07:23:15;18.80;;;9.13;;
53927;SDS011;39837;47.630;18.822;2022-12-20T07:25:59;20.15;;;10.35;;
53927;SDS011;39837;47.630;18.822;2022-12-20T07:28:44;16.83;;;10.20;;
53927;SDS011;39837;47.630;18.822;2022-12-20T07:31:28;16.70;;;9.88;;
53927;SDS011;39837;47.630;18.822;2022-12-20T07:34:12;16.85;;;10.50;;
53927;SDS011;39837;47.630;18.822;2022-12-20T07:36:56;14.00;;;9.88;;
53927;SDS011;39837;47.630;18.822;2022-12-20T07:39:40;25.00;;;9.60;;
53927;SDS011;39837;47.630;18.822;2022-12-20T07:42:24;15.00;;;8.63;;
53927;SDS011;39837;47.630;18.822;2022-12-20T07:45:08;19.15;;;11.93;;
53927;SDS011;39837;47.630;18.822;2022-12-20T07:47:52;23.52;;;11.25;;
53927;SDS011;39837;47.630;18.822;2022-12-20T07:50:36;28.60;;;15.57;;
53927;SDS011;39837;47.630;18.822;2022-12-20T07:53:20;28.08;;;13.70;;
53927;SDS011;39837;47.630;18.822;2022-12-20T07:56:06;19.15;;;10.15;;
53927;SDS011;39837;47.630;18.822;2022-12-20T07:58:51;16.35;;;9.70;;
53927;SDS011;39837;47.630;18.822;2022-12-20T08:01:36;20.73;;;10.48;;
53927;SDS011;39837;47.630;18.822;2022-12-20T08:04:22;18.50;;;8.48;;
53927;SDS011;39837;47.630;18.822;2022-12-20T08:07:08;21.40;;;9.27;;
53927;SDS011;39837;47.630;18.822;2022-12-20T08:09:52;21.95;;;11.65;;
53927;SDS011;39837;47.630;18.822;2022-12-20T08:12:36;13.15;;;8.82;;
53927;SDS011;39837;47.630;18.822;2022-12-20T08:15:20;12.55;;;8.23;;
53927;SDS011;39837;47.630;18.822;2022-12-20T08:18:05;27.50;;;11.63;;
53927;SDS011;39837;47.630;18.822;2022-12-20T08:20:49;20.80;;;10.15;;
53927;SDS011;39837;47.630;18.822;2022-12-20T08:23:34;21.35;;;10.68;;
53927;SDS011;39837;47.630;18.822;2022-12-20T08:26:18;15.35;;;9.07;;
53927;SDS011;39837;47.630;18.822;2022-12-20T08:29:03;16.50;;;10.25;;
53927;SDS011;39837;47.630;18.822;2022-12-20T08:31:47;18.17;;;9.02;;
53927;SDS011;39837;47.630;18.822;2022-12-20T08:34:32;19.05;;;9.55;;
53927;SDS011;39837;47.630;18.822;2022-12-20T08:37:16;15.02;;;9.35;;
53927;SDS011;39837;47.630;18.822;2022-12-20T08:40:00;13.30;;;9.07;;
53927;SDS011;39837;47.630;18.822;2022-12-20T08:42:44;22.10;;;8.95;;
53927;SDS011;39837;47.630;18.822;2022-12-20T08:45:28;13.75;;;8.77;;
53927;SDS011;39837;47.630;18.822;2022-12-20T08:48:12;15.05;;;8.57;;
53927;SDS011;39837;47.630;18.822;2022-12-20T08:50:56;17.27;;;8.25;;
53927;SDS011;39837;47.630;18.822;2022-12-20T08:53:41;17.10;;;9.48;;
53927;SDS011;39837;47.630;18.822;2022-12-20T08:56:25;13.38;;;8.50;;
53927;SDS011;39837;47.630;18.822;2022-12-20T08:59:09;16.17;;;9.10;;
53927;SDS011;39837;47.630;18.822;2022-12-20T09:01:54;15.18;;;8.27;;
53927;SDS011;39837;47.630;18.822;2022-12-20T09:04:38;14.77;;;8.70;;
53927;SDS011;39837;47.630;18.822;2022-12-20T09:07:22;11.02;;;7.93;;
53927;SDS011;39837;47.630;18.822;2022-12-20T09:10:06;15.38;;;8.35;;
53927;SDS011;39837;47.630;18.822;2022-12-20T09:12:50;21.98;;;10.98;;
53927;SDS011;39837;47.630;18.822;2022-12-20T09:15:34;13.60;;;8.68;;
53927;SDS011;39837;47.630;18.822;2022-12-20T09:18:19;12.55;;;8.07;;
53927;SDS011;39837;47.630;18.822;2022-12-20T09:21:03;24.05;;;11.70;;
53927;SDS011;39837;47.630;18.822;2022-12-20T09:23:49;10.45;;;8.13;;
53927;SDS011;39837;47.630;18.822;2022-12-20T09:26:34;14.55;;;9.02;;
53927;SDS011;39837;47.630;18.822;2022-12-20T09:29:19;17.75;;;8.10;;
53927;SDS011;39837;47.630;18.822;2022-12-20T09:32:03;16.10;;;9.48;;
53927;SDS011;39837;47.630;18.822;2022-12-20T09:34:47;17.45;;;9.20;;
53927;SDS011;39837;47.630;18.822;2022-12-20T09:37:31;13.18;;;8.35;;
53927;SDS011;39837;47.630;18.822;2022-12-20T09:40:19;16.13;;;9.57;;
53927;SDS011;39837;47.630;18.822;2022-12-20T09:43:05;20.25;;;8.65;;
53927;SDS011;39837;47.630;18.822;2022-12-20T09:45:55;12.57;;;7.53;;
53927;SDS011;39837;47.630;18.822;2022-12-20T09:48:40;15.25;;;7.82;;
53927;SDS011;39837;47.630;18.822;2022-12-20T09:55:06;12.93;;;7.47;;
53927;SDS011;39837;47.630;18.822;2022-12-20T09:58:10;13.77;;;7.07;;
53927;SDS011;39837;47.630;18.822;2022-12-20T10:01:14;12.70;;;8.85;;
53927;SDS011;39837;47.630;18.822;2022-12-20T10:04:01;13.23;;;9.13;;
53927;SDS011;39837;47.630;18.822;2022-12-20T10:10:48;13.23;;;9.02;;
53927;SDS011;39837;47.630;18.822;2022-12-20T10:13:11;16.42;;;7.78;;
53927;SDS011;39837;47.630;18.822;2022-12-20T10:16:02;17.85;;;10.23;;
53927;SDS011;39837;47.630;18.822;2022-12-20T10:25:12;18.33;;;9.23;;
53927;SDS011;39837;47.630;18.822;2022-12-20T10:27:56;9.50;;;8.00;;
53927;SDS011;39837;47.630;18.822;2022-12-20T10:30:41;15.13;;;7.38;;
53927;SDS011;39837;47.630;18.822;2022-12-20T10:33:25;11.32;;;7.95;;
53927;SDS011;39837;47.630;18.822;2022-12-20T10:36:23;9.57;;;6.50;;
53927;SDS011;39837;47.630;18.822;2022-12-20T10:39:09;16.27;;;7.63;;
53927;SDS011;39837;47.630;18.822;2022-12-20T10:41:53;11.15;;;7.65;;
53927;SDS011;39837;47.630;18.822;2022-12-20T10:44:37;11.90;;;6.32;;
53927;SDS011;39837;47.630;18.822;2022-12-20T10:47:34;14.15;;;8.55;;
53927;SDS011;39837;47.630;18.822;2022-12-20T10:50:21;16.65;;;9.05;;
53927;SDS011;39837;47.630;18.822;2022-12-20T10:56:07;15.25;;;8.45;;
53927;SDS011;39837;47.630;18.822;2022-12-20T10:58:54;17.13;;;9.38;;
53927;SDS011;39837;47.630;18.822;2022-12-20T11:01:43;11.98;;;8.13;;
53927;SDS011;39837;47.630;18.822;2022-12-20T11:04:30;33.22;;;11.00;;
53927;SDS011;39837;47.630;18.822;2022-12-20T11:07:23;17.15;;;8.32;;
53927;SDS011;39837;47.630;18.822;2022-12-20T11:10:19;10.07;;;7.53;;
53927;SDS011;39837;47.630;18.822;2022-12-20T11:13:05;12.23;;;9.32;;
53927;SDS011;39837;47.630;18.822;2022-12-20T11:16:01;19.33;;;8.27;;
53927;SDS011;39837;47.630;18.822;2022-12-20T11:31:10;9.43;;;6.97;;
53927;SDS011;39837;47.630;18.822;2022-12-20T11:34:15;15.02;;;8.70;;
53927;SDS011;39837;47.630;18.822;2022-12-20T11:40:33;22.27;;;7.75;;
53927;SDS011;39837;47.630;18.822;2022-12-20T11:43:28;26.25;;;9.48;;
53927;SDS011;39837;47.630;18.822;2022-12-20T11:49:33;11.07;;;7.50;;
53927;SDS011;39837;47.630;18.822;2022-12-20T11:55:32;19.67;;;7.55;;
53927;SDS011;39837;47.630;18.822;2022-12-20T11:58:20;16.58;;;8.95;;
53927;SDS011;39837;47.630;18.822;2022-12-20T12:01:07;14.88;;;8.52;;
53927;SDS011;39837;47.630;18.822;2022-12-20T12:07:03;13.38;;;9.05;;
53927;SDS011;39837;47.630;18.822;2022-12-20T12:12:44;20.58;;;9.95;;
53927;SDS011;39837;47.630;18.822;2022-12-20T12:18:28;11.55;;;7.90;;
53927;SDS011;39837;47.630;18.822;2022-12-20T12:21:24;10.32;;;7.20;;
53927;SDS011;39837;47.630;18.822;2022-12-20T12:27:26;17.27;;;8.73;;
53927;SDS011;39837;47.630;18.822;2022-12-20T12:30:12;20.00;;;9.18;;
53927;SDS011;39837;47.630;18.822;2022-12-20T12:32:59;15.80;;;7.15;;
53927;SDS011;39837;47.630;18.822;2022-12-20T12:47:51;17.30;;;9.10;;
53927;SDS011;39837;47.630;18.822;2022-12-20T12:50:40;14.82;;;7.78;;
53927;SDS011;39837;47.630;18.822;2022-12-20T12:53:33;18.13;;;9.50;;
53927;SDS011;39837;47.630;18.822;2022-12-20T12:59:18;12.52;;;7.97;;
53927;SDS011;39837;47.630;18.822;2022-12-20T13:07:49;15.90;;;8.68;;
53927;SDS011;39837;47.630;18.822;2022-12-20T13:13:21;21.35;;;9.57;;
53927;SDS011;39837;47.630;18.822;2022-12-20T13:16:09;17.52;;;11.20;;
53927;SDS011;39837;47.630;18.822;2022-12-20T13:18:55;21.05;;;10.50;;
53927;SDS011;39837;47.630;18.822;2022-12-20T13:21:45;14.93;;;9.57;;
53927;SDS011;39837;47.630;18.822;2022-12-20T13:24:49;11.80;;;8.27;;
53927;SDS011;39837;47.630;18.822;2022-12-20T13:27:40;10.57;;;8.73;;
53927;SDS011;39837;47.630;18.822;2022-12-20T13:30:25;24.17;;;11.02;;
53927;SDS011;39837;47.630;18.822;2022-12-20T13:33:17;19.17;;;11.05;;
53927;SDS011;39837;47.630;18.822;2022-12-20T13:38:54;22.58;;;11.70;;
53927;SDS011;39837;47.630;18.822;2022-12-20T13:44:40;27.25;;;12.73;;
53927;SDS011;39837;47.630;18.822;2022-12-20T13:47:45;45.65;;;17.85;;
53927;SDS011;39837;47.630;18.822;2022-12-20T13:50:37;57.28;;;23.17;;
53927;SDS011;39837;47.630;18.822;2022-12-20T13:53:24;26.20;;;12.70;;
53927;SDS011;39837;47.630;18.822;2022-12-20T13:59:30;17.92;;;9.02;;
53927;SDS011;39837;47.630;18.822;2022-12-20T14:02:17;17.65;;;12.23;;
53927;SDS011;39837;47.630;18.822;2022-12-20T14:05:17;20.40;;;11.40;;
53927;SDS011;39837;47.630;18.822;2022-12-20T14:08:16;15.80;;;11.38;;
53927;SDS011;39837;47.630;18.822;2022-12-20T14:11:10;22.45;;;11.07;;
53927;SDS011;39837;47.630;18.822;2022-12-20T14:13:59;20.02;;;9.73;;
53927;SDS011;39837;47.630;18.822;2022-12-20T14:16:44;16.77;;;10.63;;
53927;SDS011;39837;47.630;18.822;2022-12-20T14:19:28;21.15;;;11.57;;
53927;SDS011;39837;47.630;18.822;2022-12-20T14:22:12;13.48;;;8.82;;
53927;SDS011;39837;47.630;18.822;2022-12-20T14:24:57;12.88;;;8.63;;
53927;SDS011;39837;47.630;18.822;2022-12-20T14:27:41;17.88;;;10.38;;
53927;SDS011;39837;47.630;18.822;2022-12-20T14:30:44;14.75;;;8.68;;
53927;SDS011;39837;47.630;18.822;2022-12-20T14:33:28;13.45;;;8.95;;
53927;SDS011;39837;47.630;18.822;2022-12-20T14:36:22;13.93;;;8.73;;
53927;SDS011;39837;47.630;18.822;2022-12-20T14:42:12;13.32;;;10.15;;
53927;SDS011;39837;47.630;18.822;2022-12-20T14:47:55;13.88;;;8.45;;
53927;SDS011;39837;47.630;18.822;2022-12-20T14:50:49;17.85;;;11.65;;
53927;SDS011;39837;47.630;18.822;2022-12-20T14:53:34;23.42;;;11.32;;
53927;SDS011;39837;47.630;18.822;2022-12-20T14:56:20;22.20;;;11.90;;
53927;SDS011;39837;47.630;18.822;2022-12-20T14:59:14;17.40;;;10.27;;
53927;SDS011;39837;47.630;18.822;2022-12-20T15:02:04;18.23;;;9.55;;
53927;SDS011;39837;47.630;18.822;2022-12-20T15:08:29;19.75;;;9.02;;
53927;SDS011;39837;47.630;18.822;2022-12-20T15:11:19;16.67;;;9.90;;
53927;SDS011;39837;47.630;18.822;2022-12-20T15:14:47;17.17;;;9.73;;
53927;SDS011;39837;47.630;18.822;2022-12-20T15:17:19;14.45;;;9.13;;
53927;SDS011;39837;47.630;18.822;2022-12-20T15:20:03;19.00;;;9.68;;
53927;SDS011;39837;47.630;18.822;2022-12-20T15:22:47;20.50;;;11.05;;
53927;SDS011;39837;47.630;18.822;2022-12-20T15:25:32;21.35;;;11.07;;
53927;SDS011;39837;47.630;18.822;2022-12-20T15:28:19;30.65;;;13.35;;
53927;SDS011;39837;47.630;18.822;2022-12-20T15:31:04;12.55;;;8.63;;
53927;SDS011;39837;47.630;18.822;2022-12-20T15:33:48;16.10;;;8.82;;
53927;SDS011;39837;47.630;18.822;2022-12-20T15:36:33;27.95;;;15.30;;
53927;SDS011;39837;47.630;18.822;2022-12-20T15:39:17;21.52;;;11.50;;
53927;SDS011;39837;47.630;18.822;2022-12-20T15:42:02;25.40;;;14.48;;
53927;SDS011;39837;47.630;18.822;2022-12-20T15:44:47;25.52;;;13.40;;
53927;SDS011;39837;47.630;18.822;2022-12-20T15:47:31;25.38;;;13.38;;
53927;SDS011;39837;47.630;18.822;2022-12-20T15:50:15;26.10;;;13.32;;
53927;SDS011;39837;47.630;18.822;2022-12-20T15:52:59;21.40;;;12.63;;
53927;SDS011;39837;47.630;18.822;2022-12-20T15:55:43;36.90;;;15.45;;
53927;SDS011;39837;47.630;18.822;2022-12-20T15:58:28;23.10;;;12.63;;
53927;SDS011;39837;47.630;18.822;2022-12-20T16:01:13;17.05;;;12.45;;
53927;SDS011;39837;47.630;18.822;2022-12-20T16:04:00;24.95;;;12.88;;
53927;SDS011;39837;47.630;18.822;2022-12-20T16:06:45;15.57;;;10.40;;
53927;SDS011;39837;47.630;18.822;2022-12-20T16:09:30;16.55;;;11.40;;
53927;SDS011;39837;47.630;18.822;2022-12-20T16:12:15;23.27;;;11.45;;
53927;SDS011;39837;47.630;18.822;2022-12-20T16:15:01;23.83;;;12.25;;
53927;SDS011;39837;47.630;18.822;2022-12-20T16:17:46;26.15;;;12.80;;
53927;SDS011;39837;47.630;18.822;2022-12-20T16:20:30;22.98;;;12.57;;
53927;SDS011;39837;47.630;18.822;2022-12-20T16:23:18;33.08;;;14.68;;
53927;SDS011;39837;47.630;18.822;2022-12-20T16:26:05;24.20;;;14.70;;
53927;SDS011;39837;47.630;18.822;2022-12-20T16:28:49;23.13;;;12.52;;
53927;SDS011;39837;47.630;18.822;2022-12-20T16:31:35;36.42;;;15.65;;
53927;SDS011;39837;47.630;18.822;2022-12-20T16:34:20;26.85;;;15.25;;
53927;SDS011;39837;47.630;18.822;2022-12-20T16:37:04;49.33;;;23.70;;
53927;SDS011;39837;47.630;18.822;2022-12-20T16:39:48;45.15;;;21.65;;
53927;SDS011;39837;47.630;18.822;2022-12-20T16:42:32;34.97;;;18.67;;
53927;SDS011;39837;47.630;18.822;2022-12-20T16:45:18;34.38;;;18.70;;
53927;SDS011;39837;47.630;18.822;2022-12-20T16:48:03;25.48;;;15.88;;
53927;SDS011;39837;47.630;18.822;2022-12-20T16:50:48;27.83;;;16.25;;
53927;SDS011;39837;47.630;18.822;2022-12-20T16:53:32;41.47;;;19.88;;
53927;SDS011;39837;47.630;18.822;2022-12-20T16:56:16;34.28;;;18.33;;
53927;SDS011;39837;47.630;18.822;2022-12-20T16:59:00;19.10;;;11.48;;
53927;SDS011;39837;47.630;18.822;2022-12-20T17:01:45;29.08;;;14.07;;
53927;SDS011;39837;47.630;18.822;2022-12-20T17:04:29;20.92;;;13.60;;
53927;SDS011;39837;47.630;18.822;2022-12-20T17:07:13;19.38;;;11.90;;
53927;SDS011;39837;47.630;18.822;2022-12-20T17:09:58;14.45;;;10.32;;
53927;SDS011;39837;47.630;18.822;2022-12-20T17:12:42;19.35;;;12.32;;
53927;SDS011;39837;47.630;18.822;2022-12-20T17:15:28;20.33;;;11.15;;
53927;SDS011;39837;47.630;18.822;2022-12-20T17:18:14;20.65;;;11.88;;
53927;SDS011;39837;47.630;18.822;2022-12-20T17:20:59;21.35;;;12.57;;
53927;SDS011;39837;47.630;18.822;2022-12-20T17:23:44;24.20;;;12.30;;
53927;SDS011;39837;47.630;18.822;2022-12-20T17:26:29;22.38;;;12.32;;
53927;SDS011;39837;47.630;18.822;2022-12-20T17:29:13;25.02;;;12.85;;
53927;SDS011;39837;47.630;18.822;2022-12-20T17:31:57;25.08;;;13.50;;
53927;SDS011;39837;47.630;18.822;2022-12-20T17:34:42;30.00;;;14.23;;
53927;SDS011;39837;47.630;18.822;2022-12-20T17:37:25;23.80;;;13.55;;
53927;SDS011;39837;47.630;18.822;2022-12-20T17:40:12;26.25;;;12.50;;
53927;SDS011;39837;47.630;18.822;2022-12-20T17:42:57;24.83;;;14.30;;
53927;SDS011;39837;47.630;18.822;2022-12-20T17:45:42;32.58;;;16.15;;
53927;SDS011;39837;47.630;18.822;2022-12-20T17:48:26;21.45;;;13.18;;
53927;SDS011;39837;47.630;18.822;2022-12-20T17:51:31;18.00;;;12.30;;
53927;SDS011;39837;47.630;18.822;2022-12-20T17:57:02;41.08;;;19.25;;
53927;SDS011;39837;47.630;18.822;2022-12-20T17:59:46;25.52;;;13.40;;